Aviation Digital Data Service (ADDS)

Output produced by METARs form (0739 UTC 24 May 2018)
found at http://www.aviationweather.gov/adds/metars/
 
HCMH 240700Z 20018KT CAVOK 24/18 Q1018 NOSIG